sensor_id;sensor_type;location;lat;lon;timestamp;P1;durP1;ratioP1;P2;durP2;ratioP2
23304;SDS011;11821;51.456;8.844;2022-12-15T00:02:33;19.92;;;9.98;;
23304;SDS011;11821;51.456;8.844;2022-12-15T00:05:19;27.25;;;12.63;;
23304;SDS011;11821;51.456;8.844;2022-12-15T00:08:05;39.35;;;14.70;;
23304;SDS011;11821;51.456;8.844;2022-12-15T00:10:50;29.85;;;13.98;;
23304;SDS011;11821;51.456;8.844;2022-12-15T00:13:35;23.77;;;12.50;;
23304;SDS011;11821;51.456;8.844;2022-12-15T00:16:20;41.15;;;15.23;;
23304;SDS011;11821;51.456;8.844;2022-12-15T00:19:05;33.45;;;14.45;;
23304;SDS011;11821;51.456;8.844;2022-12-15T00:21:50;38.50;;;14.90;;
23304;SDS011;11821;51.456;8.844;2022-12-15T00:24:35;35.15;;;14.45;;
23304;SDS011;11821;51.456;8.844;2022-12-15T00:27:20;32.95;;;14.63;;
23304;SDS011;11821;51.456;8.844;2022-12-15T00:30:06;32.47;;;13.80;;
23304;SDS011;11821;51.456;8.844;2022-12-15T00:32:51;37.55;;;14.68;;
23304;SDS011;11821;51.456;8.844;2022-12-15T00:35:37;35.28;;;13.70;;
23304;SDS011;11821;51.456;8.844;2022-12-15T00:38:22;27.98;;;12.95;;
23304;SDS011;11821;51.456;8.844;2022-12-15T00:41:08;25.25;;;12.95;;
23304;SDS011;11821;51.456;8.844;2022-12-15T00:43:34;33.22;;;14.13;;
23304;SDS011;11821;51.456;8.844;2022-12-15T00:46:02;30.00;;;13.63;;
23304;SDS011;11821;51.456;8.844;2022-12-15T00:48:48;25.02;;;12.27;;
23304;SDS011;11821;51.456;8.844;2022-12-15T00:51:15;30.27;;;13.48;;
23304;SDS011;11821;51.456;8.844;2022-12-15T00:53:42;25.75;;;13.00;;
23304;SDS011;11821;51.456;8.844;2022-12-15T00:56:28;24.17;;;12.73;;
23304;SDS011;11821;51.456;8.844;2022-12-15T00:59:14;24.52;;;12.18;;
23304;SDS011;11821;51.456;8.844;2022-12-15T01:01:59;25.17;;;12.13;;
23304;SDS011;11821;51.456;8.844;2022-12-15T01:04:44;26.98;;;12.18;;
23304;SDS011;11821;51.456;8.844;2022-12-15T01:07:30;22.67;;;11.85;;
23304;SDS011;11821;51.456;8.844;2022-12-15T01:10:16;31.63;;;12.30;;
23304;SDS011;11821;51.456;8.844;2022-12-15T01:13:02;24.88;;;11.50;;
23304;SDS011;11821;51.456;8.844;2022-12-15T01:15:47;23.23;;;11.05;;
23304;SDS011;11821;51.456;8.844;2022-12-15T01:18:32;23.30;;;11.00;;
23304;SDS011;11821;51.456;8.844;2022-12-15T01:21:18;22.88;;;11.13;;
23304;SDS011;11821;51.456;8.844;2022-12-15T01:23:44;22.65;;;11.35;;
23304;SDS011;11821;51.456;8.844;2022-12-15T01:26:11;20.08;;;10.00;;
23304;SDS011;11821;51.456;8.844;2022-12-15T01:28:38;22.17;;;10.45;;
23304;SDS011;11821;51.456;8.844;2022-12-15T01:31:08;19.17;;;10.20;;
23304;SDS011;11821;51.456;8.844;2022-12-15T01:33:36;23.92;;;10.20;;
23304;SDS011;11821;51.456;8.844;2022-12-15T01:36:03;21.20;;;9.10;;
23304;SDS011;11821;51.456;8.844;2022-12-15T01:38:29;22.13;;;9.45;;
23304;SDS011;11821;51.456;8.844;2022-12-15T01:41:06;16.63;;;9.30;;
23304;SDS011;11821;51.456;8.844;2022-12-15T01:43:35;17.73;;;9.52;;
23304;SDS011;11821;51.456;8.844;2022-12-15T01:48:33;22.70;;;9.60;;
23304;SDS011;11821;51.456;8.844;2022-12-15T01:53:34;16.25;;;7.72;;
23304;SDS011;11821;51.456;8.844;2022-12-15T01:56:03;17.55;;;8.52;;
23304;SDS011;11821;51.456;8.844;2022-12-15T01:58:30;17.02;;;8.23;;
23304;SDS011;11821;51.456;8.844;2022-12-15T02:00:59;15.55;;;8.45;;
23304;SDS011;11821;51.456;8.844;2022-12-15T02:03:26;14.07;;;9.02;;
23304;SDS011;11821;51.456;8.844;2022-12-15T02:05:53;15.90;;;8.32;;
23304;SDS011;11821;51.456;8.844;2022-12-15T02:08:20;16.70;;;7.55;;
23304;SDS011;11821;51.456;8.844;2022-12-15T02:10:55;18.75;;;9.00;;
23304;SDS011;11821;51.456;8.844;2022-12-15T02:16:50;21.05;;;9.40;;
23304;SDS011;11821;51.456;8.844;2022-12-15T02:20:04;17.67;;;9.75;;
23304;SDS011;11821;51.456;8.844;2022-12-15T02:22:17;20.13;;;8.90;;
23304;SDS011;11821;51.456;8.844;2022-12-15T02:27:42;13.20;;;7.97;;
23304;SDS011;11821;51.456;8.844;2022-12-15T02:33:05;16.48;;;7.57;;
23304;SDS011;11821;51.456;8.844;2022-12-15T02:35:40;16.65;;;8.50;;
23304;SDS011;11821;51.456;8.844;2022-12-15T02:38:08;17.83;;;8.85;;
23304;SDS011;11821;51.456;8.844;2022-12-15T02:40:36;17.90;;;8.85;;
23304;SDS011;11821;51.456;8.844;2022-12-15T02:43:03;16.17;;;7.95;;
23304;SDS011;11821;51.456;8.844;2022-12-15T02:45:51;11.77;;;8.02;;
23304;SDS011;11821;51.456;8.844;2022-12-15T02:51:08;14.05;;;8.70;;
23304;SDS011;11821;51.456;8.844;2022-12-15T02:53:46;14.10;;;8.07;;
23304;SDS011;11821;51.456;8.844;2022-12-15T03:04:01;16.55;;;7.50;;
23304;SDS011;11821;51.456;8.844;2022-12-15T03:06:28;12.90;;;7.03;;
23304;SDS011;11821;51.456;8.844;2022-12-15T03:08:54;16.33;;;8.88;;
23304;SDS011;11821;51.456;8.844;2022-12-15T03:11:21;13.18;;;7.47;;
23304;SDS011;11821;51.456;8.844;2022-12-15T03:13:48;18.20;;;7.38;;
23304;SDS011;11821;51.456;8.844;2022-12-15T03:16:15;13.07;;;7.38;;
23304;SDS011;11821;51.456;8.844;2022-12-15T03:18:41;13.02;;;7.60;;
23304;SDS011;11821;51.456;8.844;2022-12-15T03:21:08;19.40;;;8.40;;
23304;SDS011;11821;51.456;8.844;2022-12-15T03:23:35;13.13;;;8.25;;
23304;SDS011;11821;51.456;8.844;2022-12-15T03:26:01;11.80;;;7.22;;
23304;SDS011;11821;51.456;8.844;2022-12-15T03:28:28;18.48;;;8.70;;
23304;SDS011;11821;51.456;8.844;2022-12-15T03:30:54;13.75;;;7.68;;
23304;SDS011;11821;51.456;8.844;2022-12-15T03:33:21;14.00;;;7.47;;
23304;SDS011;11821;51.456;8.844;2022-12-15T03:35:48;14.65;;;9.10;;
23304;SDS011;11821;51.456;8.844;2022-12-15T03:38:16;18.58;;;9.13;;
23304;SDS011;11821;51.456;8.844;2022-12-15T03:40:42;23.13;;;9.35;;
23304;SDS011;11821;51.456;8.844;2022-12-15T03:43:09;19.65;;;8.23;;
23304;SDS011;11821;51.456;8.844;2022-12-15T03:45:35;12.98;;;7.93;;
23304;SDS011;11821;51.456;8.844;2022-12-15T03:48:02;17.25;;;8.27;;
23304;SDS011;11821;51.456;8.844;2022-12-15T03:50:29;12.52;;;7.80;;
23304;SDS011;11821;51.456;8.844;2022-12-15T03:52:57;12.73;;;7.32;;
23304;SDS011;11821;51.456;8.844;2022-12-15T03:55:23;12.82;;;8.00;;
23304;SDS011;11821;51.456;8.844;2022-12-15T03:57:50;13.95;;;7.82;;
23304;SDS011;11821;51.456;8.844;2022-12-15T04:00:17;13.40;;;7.38;;
23304;SDS011;11821;51.456;8.844;2022-12-15T04:02:44;20.60;;;8.50;;
23304;SDS011;11821;51.456;8.844;2022-12-15T04:05:20;12.57;;;7.65;;
23304;SDS011;11821;51.456;8.844;2022-12-15T04:07:46;13.10;;;7.57;;
23304;SDS011;11821;51.456;8.844;2022-12-15T04:10:13;17.65;;;8.95;;
23304;SDS011;11821;51.456;8.844;2022-12-15T04:12:40;13.23;;;6.20;;
23304;SDS011;11821;51.456;8.844;2022-12-15T04:15:07;13.45;;;8.05;;
23304;SDS011;11821;51.456;8.844;2022-12-15T04:17:33;17.48;;;7.75;;
23304;SDS011;11821;51.456;8.844;2022-12-15T04:20:00;16.60;;;8.75;;
23304;SDS011;11821;51.456;8.844;2022-12-15T04:22:40;15.38;;;7.00;;
23304;SDS011;11821;51.456;8.844;2022-12-15T04:25:08;16.83;;;8.98;;
23304;SDS011;11821;51.456;8.844;2022-12-15T04:27:53;22.25;;;8.27;;
23304;SDS011;11821;51.456;8.844;2022-12-15T04:30:39;14.18;;;7.53;;
23304;SDS011;11821;51.456;8.844;2022-12-15T04:33:26;13.20;;;7.55;;
23304;SDS011;11821;51.456;8.844;2022-12-15T04:36:11;16.90;;;8.90;;
23304;SDS011;11821;51.456;8.844;2022-12-15T04:38:57;19.60;;;8.98;;
23304;SDS011;11821;51.456;8.844;2022-12-15T04:41:42;12.50;;;7.43;;
23304;SDS011;11821;51.456;8.844;2022-12-15T04:44:28;14.90;;;7.95;;
23304;SDS011;11821;51.456;8.844;2022-12-15T04:47:14;14.50;;;7.75;;
23304;SDS011;11821;51.456;8.844;2022-12-15T04:49:59;15.35;;;8.48;;
23304;SDS011;11821;51.456;8.844;2022-12-15T04:52:45;16.80;;;8.75;;
23304;SDS011;11821;51.456;8.844;2022-12-15T04:55:33;16.98;;;9.40;;
23304;SDS011;11821;51.456;8.844;2022-12-15T04:58:19;16.17;;;8.38;;
23304;SDS011;11821;51.456;8.844;2022-12-15T05:01:04;13.27;;;7.25;;
23304;SDS011;11821;51.456;8.844;2022-12-15T05:03:49;21.90;;;8.90;;
23304;SDS011;11821;51.456;8.844;2022-12-15T05:06:34;12.50;;;7.38;;
23304;SDS011;11821;51.456;8.844;2022-12-15T05:09:20;12.55;;;7.78;;
23304;SDS011;11821;51.456;8.844;2022-12-15T05:12:05;14.18;;;8.05;;
23304;SDS011;11821;51.456;8.844;2022-12-15T05:14:50;14.88;;;8.10;;
23304;SDS011;11821;51.456;8.844;2022-12-15T05:17:35;19.55;;;8.90;;
23304;SDS011;11821;51.456;8.844;2022-12-15T05:20:20;12.90;;;7.68;;
23304;SDS011;11821;51.456;8.844;2022-12-15T05:23:05;15.68;;;9.05;;
23304;SDS011;11821;51.456;8.844;2022-12-15T05:25:50;11.07;;;7.15;;
23304;SDS011;11821;51.456;8.844;2022-12-15T05:28:36;14.10;;;7.72;;
23304;SDS011;11821;51.456;8.844;2022-12-15T05:31:21;13.20;;;7.82;;
23304;SDS011;11821;51.456;8.844;2022-12-15T05:34:06;16.05;;;7.65;;
23304;SDS011;11821;51.456;8.844;2022-12-15T05:36:32;15.48;;;8.52;;
23304;SDS011;11821;51.456;8.844;2022-12-15T05:38:59;12.13;;;8.02;;
23304;SDS011;11821;51.456;8.844;2022-12-15T05:41:26;12.35;;;8.13;;
23304;SDS011;11821;51.456;8.844;2022-12-15T05:43:52;15.02;;;8.05;;
23304;SDS011;11821;51.456;8.844;2022-12-15T05:46:19;13.82;;;7.75;;
23304;SDS011;11821;51.456;8.844;2022-12-15T05:48:45;14.38;;;8.77;;
23304;SDS011;11821;51.456;8.844;2022-12-15T05:51:12;19.23;;;8.45;;
23304;SDS011;11821;51.456;8.844;2022-12-15T05:53:40;13.38;;;8.23;;
23304;SDS011;11821;51.456;8.844;2022-12-15T05:56:07;11.35;;;6.80;;
23304;SDS011;11821;51.456;8.844;2022-12-15T05:58:34;13.80;;;7.53;;
23304;SDS011;11821;51.456;8.844;2022-12-15T06:01:08;18.70;;;11.07;;
23304;SDS011;11821;51.456;8.844;2022-12-15T06:03:36;29.38;;;10.80;;
23304;SDS011;11821;51.456;8.844;2022-12-15T06:06:03;20.10;;;10.20;;
23304;SDS011;11821;51.456;8.844;2022-12-15T06:08:31;19.85;;;10.38;;
23304;SDS011;11821;51.456;8.844;2022-12-15T06:10:58;15.00;;;9.60;;
23304;SDS011;11821;51.456;8.844;2022-12-15T06:13:26;19.40;;;10.32;;
23304;SDS011;11821;51.456;8.844;2022-12-15T06:15:56;14.50;;;8.27;;
23304;SDS011;11821;51.456;8.844;2022-12-15T06:18:23;19.42;;;9.63;;
23304;SDS011;11821;51.456;8.844;2022-12-15T06:21:01;22.48;;;10.40;;
23304;SDS011;11821;51.456;8.844;2022-12-15T06:23:28;16.02;;;9.68;;
23304;SDS011;11821;51.456;8.844;2022-12-15T06:25:55;12.95;;;8.07;;
23304;SDS011;11821;51.456;8.844;2022-12-15T06:28:21;14.45;;;8.60;;
23304;SDS011;11821;51.456;8.844;2022-12-15T06:30:50;16.33;;;8.75;;
23304;SDS011;11821;51.456;8.844;2022-12-15T06:33:17;13.82;;;8.55;;
23304;SDS011;11821;51.456;8.844;2022-12-15T06:35:44;15.60;;;8.32;;
23304;SDS011;11821;51.456;8.844;2022-12-15T06:38:11;12.18;;;7.25;;
23304;SDS011;11821;51.456;8.844;2022-12-15T06:40:38;10.75;;;6.93;;
23304;SDS011;11821;51.456;8.844;2022-12-15T06:43:05;13.30;;;6.88;;
23304;SDS011;11821;51.456;8.844;2022-12-15T06:45:32;11.75;;;7.05;;
23304;SDS011;11821;51.456;8.844;2022-12-15T06:47:58;14.15;;;8.32;;
23304;SDS011;11821;51.456;8.844;2022-12-15T06:50:25;13.35;;;7.80;;
23304;SDS011;11821;51.456;8.844;2022-12-15T06:52:52;14.38;;;7.68;;
23304;SDS011;11821;51.456;8.844;2022-12-15T06:55:18;15.93;;;7.40;;
23304;SDS011;11821;51.456;8.844;2022-12-15T06:57:48;19.55;;;8.77;;
23304;SDS011;11821;51.456;8.844;2022-12-15T07:00:15;19.80;;;9.05;;
23304;SDS011;11821;51.456;8.844;2022-12-15T07:02:41;12.82;;;6.32;;
23304;SDS011;11821;51.456;8.844;2022-12-15T07:05:08;12.23;;;6.63;;
23304;SDS011;11821;51.456;8.844;2022-12-15T07:07:35;13.60;;;7.15;;
23304;SDS011;11821;51.456;8.844;2022-12-15T07:10:01;17.48;;;9.40;;
23304;SDS011;11821;51.456;8.844;2022-12-15T07:12:28;14.63;;;7.25;;
23304;SDS011;11821;51.456;8.844;2022-12-15T07:14:54;13.00;;;6.80;;
23304;SDS011;11821;51.456;8.844;2022-12-15T07:17:21;9.63;;;5.57;;
23304;SDS011;11821;51.456;8.844;2022-12-15T07:19:48;11.27;;;6.43;;
23304;SDS011;11821;51.456;8.844;2022-12-15T07:22:15;15.60;;;7.40;;
23304;SDS011;11821;51.456;8.844;2022-12-15T07:24:43;13.75;;;7.65;;
23304;SDS011;11821;51.456;8.844;2022-12-15T07:27:09;15.63;;;7.70;;
23304;SDS011;11821;51.456;8.844;2022-12-15T07:29:36;15.27;;;7.63;;
23304;SDS011;11821;51.456;8.844;2022-12-15T07:32:02;16.98;;;8.15;;
23304;SDS011;11821;51.456;8.844;2022-12-15T07:34:29;16.02;;;9.13;;
23304;SDS011;11821;51.456;8.844;2022-12-15T07:36:56;15.93;;;9.23;;
23304;SDS011;11821;51.456;8.844;2022-12-15T07:39:22;16.35;;;8.55;;
23304;SDS011;11821;51.456;8.844;2022-12-15T07:41:51;16.25;;;8.70;;
23304;SDS011;11821;51.456;8.844;2022-12-15T07:44:18;21.05;;;10.18;;
23304;SDS011;11821;51.456;8.844;2022-12-15T07:46:45;18.20;;;9.25;;
23304;SDS011;11821;51.456;8.844;2022-12-15T07:49:14;23.48;;;9.32;;
23304;SDS011;11821;51.456;8.844;2022-12-15T07:51:42;17.48;;;9.68;;
23304;SDS011;11821;51.456;8.844;2022-12-15T07:54:09;21.77;;;10.98;;
23304;SDS011;11821;51.456;8.844;2022-12-15T07:56:37;15.13;;;9.02;;
23304;SDS011;11821;51.456;8.844;2022-12-15T07:59:04;12.15;;;8.38;;
23304;SDS011;11821;51.456;8.844;2022-12-15T08:01:30;17.77;;;7.93;;
23304;SDS011;11821;51.456;8.844;2022-12-15T08:03:57;14.45;;;8.63;;
23304;SDS011;11821;51.456;8.844;2022-12-15T08:06:24;17.08;;;8.77;;
23304;SDS011;11821;51.456;8.844;2022-12-15T08:08:50;13.65;;;8.20;;
23304;SDS011;11821;51.456;8.844;2022-12-15T08:11:18;17.30;;;8.85;;
23304;SDS011;11821;51.456;8.844;2022-12-15T08:13:45;13.60;;;8.30;;
23304;SDS011;11821;51.456;8.844;2022-12-15T08:16:12;15.68;;;8.43;;
23304;SDS011;11821;51.456;8.844;2022-12-15T08:18:38;17.27;;;7.63;;
23304;SDS011;11821;51.456;8.844;2022-12-15T08:21:06;12.05;;;7.85;;
23304;SDS011;11821;51.456;8.844;2022-12-15T08:23:33;16.77;;;7.07;;
23304;SDS011;11821;51.456;8.844;2022-12-15T08:26:00;15.27;;;7.28;;
23304;SDS011;11821;51.456;8.844;2022-12-15T08:28:27;12.05;;;7.32;;
23304;SDS011;11821;51.456;8.844;2022-12-15T08:30:54;10.98;;;7.25;;
23304;SDS011;11821;51.456;8.844;2022-12-15T08:33:20;11.30;;;7.28;;
23304;SDS011;11821;51.456;8.844;2022-12-15T08:35:47;12.48;;;7.78;;
23304;SDS011;11821;51.456;8.844;2022-12-15T08:38:14;15.40;;;9.32;;
23304;SDS011;11821;51.456;8.844;2022-12-15T08:40:40;16.52;;;7.78;;
23304;SDS011;11821;51.456;8.844;2022-12-15T08:43:07;11.90;;;7.47;;
23304;SDS011;11821;51.456;8.844;2022-12-15T08:45:33;11.40;;;7.93;;
23304;SDS011;11821;51.456;8.844;2022-12-15T08:48:00;18.45;;;8.73;;
23304;SDS011;11821;51.456;8.844;2022-12-15T08:50:27;16.77;;;7.57;;
23304;SDS011;11821;51.456;8.844;2022-12-15T08:52:54;15.07;;;7.28;;
23304;SDS011;11821;51.456;8.844;2022-12-15T08:55:20;9.35;;;5.78;;
23304;SDS011;11821;51.456;8.844;2022-12-15T08:57:48;12.10;;;6.80;;
23304;SDS011;11821;51.456;8.844;2022-12-15T09:00:15;12.13;;;7.40;;
23304;SDS011;11821;51.456;8.844;2022-12-15T09:02:42;12.20;;;6.78;;
23304;SDS011;11821;51.456;8.844;2022-12-15T09:05:09;18.00;;;8.02;;
23304;SDS011;11821;51.456;8.844;2022-12-15T09:07:35;13.10;;;8.95;;
23304;SDS011;11821;51.456;8.844;2022-12-15T09:10:02;16.85;;;9.55;;
23304;SDS011;11821;51.456;8.844;2022-12-15T09:12:29;14.27;;;8.55;;
23304;SDS011;11821;51.456;8.844;2022-12-15T09:14:55;17.48;;;9.38;;
23304;SDS011;11821;51.456;8.844;2022-12-15T09:17:22;15.00;;;9.30;;
23304;SDS011;11821;51.456;8.844;2022-12-15T09:19:49;17.60;;;9.63;;
23304;SDS011;11821;51.456;8.844;2022-12-15T09:22:15;17.75;;;9.60;;
23304;SDS011;11821;51.456;8.844;2022-12-15T09:24:42;16.70;;;9.50;;
23304;SDS011;11821;51.456;8.844;2022-12-15T09:27:09;13.63;;;8.48;;
23304;SDS011;11821;51.456;8.844;2022-12-15T09:29:35;13.63;;;8.75;;
23304;SDS011;11821;51.456;8.844;2022-12-15T09:32:03;14.63;;;8.82;;
23304;SDS011;11821;51.456;8.844;2022-12-15T09:34:30;13.85;;;8.18;;
23304;SDS011;11821;51.456;8.844;2022-12-15T09:36:56;18.55;;;8.98;;
23304;SDS011;11821;51.456;8.844;2022-12-15T09:39:23;15.07;;;7.55;;
23304;SDS011;11821;51.456;8.844;2022-12-15T09:41:57;14.02;;;8.38;;
23304;SDS011;11821;51.456;8.844;2022-12-15T09:44:24;11.60;;;7.43;;
23304;SDS011;11821;51.456;8.844;2022-12-15T09:51:58;11.10;;;7.03;;
23304;SDS011;11821;51.456;8.844;2022-12-15T09:54:27;13.98;;;7.60;;
23304;SDS011;11821;51.456;8.844;2022-12-15T09:56:57;11.77;;;7.55;;
23304;SDS011;11821;51.456;8.844;2022-12-15T10:04:51;10.75;;;7.47;;
23304;SDS011;11821;51.456;8.844;2022-12-15T10:07:26;9.90;;;6.70;;
23304;SDS011;11821;51.456;8.844;2022-12-15T10:09:54;13.77;;;7.43;;
23304;SDS011;11821;51.456;8.844;2022-12-15T10:12:25;14.88;;;7.60;;
23304;SDS011;11821;51.456;8.844;2022-12-15T10:20:37;12.82;;;7.30;;
23304;SDS011;11821;51.456;8.844;2022-12-15T10:23:12;8.65;;;6.00;;
23304;SDS011;11821;51.456;8.844;2022-12-15T10:25:39;9.02;;;6.55;;
23304;SDS011;11821;51.456;8.844;2022-12-15T10:28:35;11.93;;;7.55;;
23304;SDS011;11821;51.456;8.844;2022-12-15T10:31:00;12.18;;;6.50;;
23304;SDS011;11821;51.456;8.844;2022-12-15T10:33:33;8.75;;;6.05;;
23304;SDS011;11821;51.456;8.844;2022-12-15T10:36:00;8.95;;;6.47;;
23304;SDS011;11821;51.456;8.844;2022-12-15T10:38:37;12.00;;;6.47;;
23304;SDS011;11821;51.456;8.844;2022-12-15T10:41:05;9.77;;;5.78;;
23304;SDS011;11821;51.456;8.844;2022-12-15T10:43:34;10.82;;;5.60;;
23304;SDS011;11821;51.456;8.844;2022-12-15T10:48:34;8.60;;;5.43;;
23304;SDS011;11821;51.456;8.844;2022-12-15T10:53:41;9.68;;;6.82;;
23304;SDS011;11821;51.456;8.844;2022-12-15T10:56:12;10.00;;;6.10;;
23304;SDS011;11821;51.456;8.844;2022-12-15T10:58:45;13.07;;;6.45;;
23304;SDS011;11821;51.456;8.844;2022-12-15T11:04:24;8.02;;;5.95;;
23304;SDS011;11821;51.456;8.844;2022-12-15T11:06:55;11.65;;;5.78;;
23304;SDS011;11821;51.456;8.844;2022-12-15T11:09:25;10.65;;;5.95;;
23304;SDS011;11821;51.456;8.844;2022-12-15T11:11:53;7.50;;;4.50;;
23304;SDS011;11821;51.456;8.844;2022-12-15T11:14:42;12.15;;;5.05;;
23304;SDS011;11821;51.456;8.844;2022-12-15T11:17:16;6.50;;;4.22;;
23304;SDS011;11821;51.456;8.844;2022-12-15T11:22:29;9.30;;;6.13;;
23304;SDS011;11821;51.456;8.844;2022-12-15T11:27:44;9.88;;;5.63;;
23304;SDS011;11821;51.456;8.844;2022-12-15T11:32:49;7.93;;;6.20;;
23304;SDS011;11821;51.456;8.844;2022-12-15T11:35:19;9.25;;;6.40;;
23304;SDS011;11821;51.456;8.844;2022-12-15T12:00:42;14.88;;;9.45;;
23304;SDS011;11821;51.456;8.844;2022-12-15T12:09:12;14.32;;;9.80;;
23304;SDS011;11821;51.456;8.844;2022-12-15T12:19:37;13.82;;;7.97;;
23304;SDS011;11821;51.456;8.844;2022-12-15T12:22:10;12.38;;;8.18;;
23304;SDS011;11821;51.456;8.844;2022-12-15T12:24:38;13.48;;;9.00;;
23304;SDS011;11821;51.456;8.844;2022-12-15T12:29:43;11.40;;;7.57;;
23304;SDS011;11821;51.456;8.844;2022-12-15T12:35:03;9.90;;;7.38;;
23304;SDS011;11821;51.456;8.844;2022-12-15T12:37:40;9.02;;;7.55;;
23304;SDS011;11821;51.456;8.844;2022-12-15T12:42:56;13.23;;;7.50;;
23304;SDS011;11821;51.456;8.844;2022-12-15T12:45:28;12.63;;;8.00;;
23304;SDS011;11821;51.456;8.844;2022-12-15T12:50:22;11.90;;;7.85;;
23304;SDS011;11821;51.456;8.844;2022-12-15T12:52:51;14.63;;;8.77;;
23304;SDS011;11821;51.456;8.844;2022-12-15T12:55:24;16.75;;;9.07;;
23304;SDS011;11821;51.456;8.844;2022-12-15T12:57:51;16.38;;;10.75;;
23304;SDS011;11821;51.456;8.844;2022-12-15T13:05:26;16.88;;;10.68;;
23304;SDS011;11821;51.456;8.844;2022-12-15T13:10:35;17.20;;;9.50;;
23304;SDS011;11821;51.456;8.844;2022-12-15T13:15:48;17.40;;;10.60;;
23304;SDS011;11821;51.456;8.844;2022-12-15T13:20:43;42.10;;;15.90;;
23304;SDS011;11821;51.456;8.844;2022-12-15T13:31:26;18.70;;;11.52;;
23304;SDS011;11821;51.456;8.844;2022-12-15T13:33:55;18.30;;;11.40;;
23304;SDS011;11821;51.456;8.844;2022-12-15T13:39:04;18.30;;;10.63;;
23304;SDS011;11821;51.456;8.844;2022-12-15T13:47:05;15.68;;;11.20;;
23304;SDS011;11821;51.456;8.844;2022-12-15T13:54:53;17.63;;;12.50;;
23304;SDS011;11821;51.456;8.844;2022-12-15T13:57:20;15.50;;;11.70;;
23304;SDS011;11821;51.456;8.844;2022-12-15T13:59:48;21.27;;;12.75;;
23304;SDS011;11821;51.456;8.844;2022-12-15T14:02:26;19.92;;;11.88;;
23304;SDS011;11821;51.456;8.844;2022-12-15T14:07:49;31.77;;;14.60;;
23304;SDS011;11821;51.456;8.844;2022-12-15T14:10:23;20.05;;;12.68;;
23304;SDS011;11821;51.456;8.844;2022-12-15T14:12:51;18.83;;;12.40;;
23304;SDS011;11821;51.456;8.844;2022-12-15T14:15:26;19.52;;;11.88;;
23304;SDS011;11821;51.456;8.844;2022-12-15T14:17:53;19.77;;;11.30;;
23304;SDS011;11821;51.456;8.844;2022-12-15T14:20:27;21.25;;;11.52;;
23304;SDS011;11821;51.456;8.844;2022-12-15T14:22:54;18.02;;;10.70;;
23304;SDS011;11821;51.456;8.844;2022-12-15T14:25:22;15.88;;;9.90;;
23304;SDS011;11821;51.456;8.844;2022-12-15T14:27:49;13.63;;;9.82;;
23304;SDS011;11821;51.456;8.844;2022-12-15T14:30:23;18.10;;;11.20;;
23304;SDS011;11821;51.456;8.844;2022-12-15T14:32:52;17.25;;;10.82;;
23304;SDS011;11821;51.456;8.844;2022-12-15T14:35:24;19.05;;;11.75;;
23304;SDS011;11821;51.456;8.844;2022-12-15T14:37:52;19.33;;;10.27;;
23304;SDS011;11821;51.456;8.844;2022-12-15T14:40:20;20.25;;;12.60;;
23304;SDS011;11821;51.456;8.844;2022-12-15T14:42:48;21.27;;;14.45;;
23304;SDS011;11821;51.456;8.844;2022-12-15T14:45:17;17.35;;;12.75;;
23304;SDS011;11821;51.456;8.844;2022-12-15T14:47:47;23.75;;;12.65;;
23304;SDS011;11821;51.456;8.844;2022-12-15T14:50:15;20.77;;;12.52;;
23304;SDS011;11821;51.456;8.844;2022-12-15T14:52:42;20.88;;;13.10;;
23304;SDS011;11821;51.456;8.844;2022-12-15T14:55:43;28.20;;;13.07;;
23304;SDS011;11821;51.456;8.844;2022-12-15T15:01:22;22.40;;;13.82;;
23304;SDS011;11821;51.456;8.844;2022-12-15T15:06:42;22.30;;;12.48;;
23304;SDS011;11821;51.456;8.844;2022-12-15T15:09:22;21.60;;;13.00;;
23304;SDS011;11821;51.456;8.844;2022-12-15T15:11:50;21.65;;;12.35;;
23304;SDS011;11821;51.456;8.844;2022-12-15T15:14:22;19.70;;;13.23;;
23304;SDS011;11821;51.456;8.844;2022-12-15T15:17:01;23.92;;;13.70;;
23304;SDS011;11821;51.456;8.844;2022-12-15T15:19:29;22.38;;;13.27;;
23304;SDS011;11821;51.456;8.844;2022-12-15T15:22:00;21.67;;;13.73;;
23304;SDS011;11821;51.456;8.844;2022-12-15T15:24:34;41.45;;;19.10;;
23304;SDS011;11821;51.456;8.844;2022-12-15T15:27:18;28.65;;;16.30;;
23304;SDS011;11821;51.456;8.844;2022-12-15T15:29:47;32.25;;;15.63;;
23304;SDS011;11821;51.456;8.844;2022-12-15T15:32:15;27.17;;;16.33;;
23304;SDS011;11821;51.456;8.844;2022-12-15T15:34:43;27.33;;;14.60;;
23304;SDS011;11821;51.456;8.844;2022-12-15T15:39:41;30.40;;;15.43;;
23304;SDS011;11821;51.456;8.844;2022-12-15T15:42:09;25.70;;;15.40;;
23304;SDS011;11821;51.456;8.844;2022-12-15T15:44:36;30.90;;;17.63;;
23304;SDS011;11821;51.456;8.844;2022-12-15T15:47:03;30.63;;;15.27;;
23304;SDS011;11821;51.456;8.844;2022-12-15T15:49:30;24.63;;;13.85;;
23304;SDS011;11821;51.456;8.844;2022-12-15T15:51:57;30.95;;;13.90;;
23304;SDS011;11821;51.456;8.844;2022-12-15T15:54:24;21.13;;;13.50;;
23304;SDS011;11821;51.456;8.844;2022-12-15T15:56:54;20.83;;;13.50;;
23304;SDS011;11821;51.456;8.844;2022-12-15T15:59:20;29.38;;;13.75;;
23304;SDS011;11821;51.456;8.844;2022-12-15T16:01:50;23.25;;;14.57;;
23304;SDS011;11821;51.456;8.844;2022-12-15T16:04:18;22.02;;;12.27;;
23304;SDS011;11821;51.456;8.844;2022-12-15T16:06:44;20.27;;;11.82;;
23304;SDS011;11821;51.456;8.844;2022-12-15T16:09:12;19.98;;;12.68;;
23304;SDS011;11821;51.456;8.844;2022-12-15T16:11:39;18.20;;;13.02;;
23304;SDS011;11821;51.456;8.844;2022-12-15T16:14:12;22.70;;;13.32;;
23304;SDS011;11821;51.456;8.844;2022-12-15T16:16:39;24.65;;;12.73;;
23304;SDS011;11821;51.456;8.844;2022-12-15T16:19:07;22.42;;;13.38;;
23304;SDS011;11821;51.456;8.844;2022-12-15T16:21:34;24.65;;;13.35;;
23304;SDS011;11821;51.456;8.844;2022-12-15T16:24:13;23.67;;;14.43;;
23304;SDS011;11821;51.456;8.844;2022-12-15T16:26:48;44.45;;;21.38;;
23304;SDS011;11821;51.456;8.844;2022-12-15T16:29:16;45.60;;;21.98;;
23304;SDS011;11821;51.456;8.844;2022-12-15T16:31:43;40.85;;;20.63;;
23304;SDS011;11821;51.456;8.844;2022-12-15T16:34:10;39.35;;;20.67;;
23304;SDS011;11821;51.456;8.844;2022-12-15T16:36:38;46.97;;;21.45;;
23304;SDS011;11821;51.456;8.844;2022-12-15T16:39:09;48.15;;;23.27;;
23304;SDS011;11821;51.456;8.844;2022-12-15T16:41:43;48.63;;;22.58;;
23304;SDS011;11821;51.456;8.844;2022-12-15T16:44:10;42.03;;;20.73;;
23304;SDS011;11821;51.456;8.844;2022-12-15T16:46:37;34.40;;;19.42;;
23304;SDS011;11821;51.456;8.844;2022-12-15T16:49:04;29.35;;;15.98;;
23304;SDS011;11821;51.456;8.844;2022-12-15T16:51:36;35.70;;;18.35;;
23304;SDS011;11821;51.456;8.844;2022-12-15T16:54:04;38.50;;;18.73;;
23304;SDS011;11821;51.456;8.844;2022-12-15T16:56:31;25.92;;;15.18;;
23304;SDS011;11821;51.456;8.844;2022-12-15T16:58:58;33.67;;;18.02;;
23304;SDS011;11821;51.456;8.844;2022-12-15T17:01:24;36.05;;;19.48;;
23304;SDS011;11821;51.456;8.844;2022-12-15T17:03:51;32.28;;;16.75;;
23304;SDS011;11821;51.456;8.844;2022-12-15T17:06:18;32.75;;;17.17;;
23304;SDS011;11821;51.456;8.844;2022-12-15T17:08:46;31.83;;;16.88;;
23304;SDS011;11821;51.456;8.844;2022-12-15T17:11:22;40.03;;;20.35;;
23304;SDS011;11821;51.456;8.844;2022-12-15T17:13:50;35.28;;;19.60;;
23304;SDS011;11821;51.456;8.844;2022-12-15T17:16:18;38.10;;;19.45;;
23304;SDS011;11821;51.456;8.844;2022-12-15T17:18:46;39.55;;;19.33;;
23304;SDS011;11821;51.456;8.844;2022-12-15T17:21:20;36.40;;;19.15;;
23304;SDS011;11821;51.456;8.844;2022-12-15T17:23:50;39.53;;;19.63;;
23304;SDS011;11821;51.456;8.844;2022-12-15T17:26:28;45.25;;;21.10;;